Terminal Aerodrome Forecast
Issued by NWS Charleston, WV

Home | Current Version | Previous Version | Text Only | Print | Product List | Glossary On
Versions: 1 2 3 4 5 6 7 8 9 10 11 12 13 14 15 16 17 18 19 20 21
780
FTUS41 KRLX 010300 AAA
TAFBKW
TAF AMD
KBKW 010300Z 0103/0124 15011G18KT 6SM BR OVC025
      TEMPO 0103/0105 BKN035
     FM010700 15010KT 4SM SHRA BR SCT008 OVC015
     FM011100 18008KT 6SM SHRA OVC015
     FM011400 21008KT P6SM SHRA BKN035
     FM011600 22008KT P6SM SHRA VCTS BKN040CB=

USA.gov is the U.S. government's official web portal to all federal, state and local government web resources and services.